Dawmont, West Virginia
Current Conditions -  °F | °C
As of 5:53 PM on Thursday 23 Oct 2014 (Local Time) from KCKB Reporting Station
Clear Clear  
Wind Chill: 54°   Ceiling: Unl
Heat Index: 54°   Visibility: 10mi
Dew Point: 44°   Wind: 9mph
Humidity: 69%   Direction: 280°W
Pressure: 30.08"   Gusts: NA
Location:  39.2941°N, 80.3845°W
Report Text: KCKB 232153Z 28008KT 10SM CLR 12/07 A3008 RMK AO2 SLP183 T01220067
Loading
Personal Weather Stations






























Interactive Weather Map
Tropical Storm Tracking
New forecast layout! Learn more

10-Day Weather Forecast

Advertisements
Track Severe Weather on mobile